createdAt,value
2023-04-30T00:01:04.565Z,7.22
2023-04-30T00:03:44.695Z,7.20
2023-04-30T00:06:31.625Z,7.17
2023-04-30T00:09:04.718Z,7.16
2023-04-30T00:11:51.599Z,7.19
2023-04-30T00:14:24.733Z,7.17
2023-04-30T00:17:11.688Z,7.16
2023-04-30T00:19:51.572Z,7.17
2023-04-30T00:22:45.629Z,7.15
2023-04-30T00:25:32.598Z,7.13
2023-04-30T00:28:05.675Z,7.14
2023-04-30T00:30:52.592Z,7.16
2023-04-30T00:33:32.579Z,7.15
2023-04-30T00:36:19.571Z,7.18
2023-04-30T00:38:52.672Z,7.18
2023-04-30T00:41:42.630Z,7.21
2023-04-30T00:44:15.785Z,7.26
2023-04-30T00:47:02.596Z,7.30
2023-04-30T00:49:35.731Z,7.31
2023-04-30T00:52:29.588Z,7.31
2023-04-30T00:55:25.726Z,7.27
2023-04-30T00:58:12.606Z,7.26
2023-04-30T01:00:53.617Z,7.24
2023-04-30T01:03:48.700Z,7.23
2023-04-30T01:06:35.695Z,7.22
2023-04-30T01:09:08.715Z,7.22
2023-04-30T01:12:37.580Z,7.25
2023-04-30T01:15:19.800Z,7.24
2023-04-30T01:18:12.742Z,7.20
2023-04-30T01:20:55.781Z,7.19
2023-04-30T01:24:13.603Z,7.14
2023-04-30T01:27:43.620Z,7.10
2023-04-30T01:30:37.581Z,7.10
2023-04-30T01:33:24.581Z,7.07
2023-04-30T01:36:06.703Z,7.07
2023-04-30T01:39:38.602Z,7.07
2023-04-30T01:42:21.287Z,7.10
2023-04-30T01:45:34.598Z,7.09
2023-04-30T01:48:29.622Z,7.09
2023-04-30T01:51:56.600Z,7.10
2023-04-30T01:54:51.239Z,7.15
2023-04-30T01:58:09.605Z,7.16
2023-04-30T02:00:42.962Z,7.17
2023-04-30T02:03:29.690Z,7.18
2023-04-30T02:06:03.012Z,7.22
2023-04-30T02:08:49.623Z,7.25
2023-04-30T02:11:32.615Z,7.27
2023-04-30T02:14:12.725Z,7.29
2023-04-30T02:16:53.620Z,7.30
2023-04-30T02:19:33.701Z,7.33
2023-04-30T02:22:13.613Z,7.34
2023-04-30T02:24:55.696Z,7.37
2023-04-30T02:27:37.614Z,7.36
2023-04-30T02:30:26.616Z,7.35
2023-04-30T02:33:00.222Z,7.35
2023-04-30T02:35:47.627Z,7.34
2023-04-30T02:38:21.320Z,7.36
2023-04-30T02:41:07.658Z,7.35
2023-04-30T02:43:40.976Z,7.37
2023-04-30T02:46:27.631Z,7.38
2023-04-30T02:49:01.159Z,7.40
2023-04-30T02:51:47.627Z,7.41
2023-04-30T02:54:41.620Z,7.42
2023-04-30T02:57:28.625Z,7.46
2023-04-30T03:00:01.812Z,7.46
2023-04-30T03:02:48.719Z,7.48
2023-04-30T03:05:21.746Z,7.48
2023-04-30T03:08:08.628Z,7.50
2023-04-30T03:10:41.756Z,7.49
2023-04-30T03:13:28.652Z,7.52
2023-04-30T03:16:16.633Z,7.56
2023-04-30T03:19:10.624Z,7.57
2023-04-30T03:21:58.644Z,7.57
2023-04-30T03:24:38.647Z,7.57
2023-04-30T03:27:25.633Z,7.59
2023-04-30T03:29:58.735Z,7.60
2023-04-30T03:32:45.706Z,7.60
2023-04-30T03:35:25.661Z,7.60
2023-04-30T03:38:12.658Z,7.58
2023-04-30T03:40:45.957Z,7.59
2023-04-30T03:43:32.641Z,7.61
2023-04-30T03:46:12.717Z,7.60
2023-04-30T03:48:59.651Z,7.58
2023-04-30T03:51:34.836Z,7.60
2023-04-30T03:54:21.677Z,7.61
2023-04-30T03:56:54.747Z,7.61
2023-04-30T03:59:41.720Z,7.60
2023-04-30T04:02:14.764Z,7.59
2023-04-30T04:05:01.694Z,7.58
2023-04-30T04:07:41.654Z,7.60
2023-04-30T04:10:35.685Z,7.65
2023-04-30T04:13:29.672Z,7.66
2023-04-30T04:16:16.699Z,7.66
2023-04-30T04:18:56.680Z,7.69
2023-04-30T04:21:50.700Z,7.71
2023-04-30T04:24:44.702Z,7.71
2023-04-30T04:27:38.668Z,7.72
2023-04-30T04:30:32.692Z,7.76
2023-04-30T04:33:19.682Z,7.75
2023-04-30T04:35:52.759Z,7.73
2023-04-30T04:38:39.682Z,7.76
2023-04-30T04:41:19.665Z,7.79
2023-04-30T04:44:13.711Z,7.81
2023-04-30T04:47:07.663Z,7.85
2023-04-30T04:49:54.957Z,7.87
2023-04-30T04:52:28.861Z,7.87
2023-04-30T04:55:15.676Z,7.89
2023-04-30T04:57:48.836Z,7.93
2023-04-30T05:00:36.725Z,7.93
2023-04-30T05:03:16.761Z,7.95
2023-04-30T05:06:10.694Z,7.98
2023-04-30T05:08:57.676Z,8.00
2023-04-30T05:11:30.819Z,8.03
2023-04-30T05:14:17.685Z,8.06
2023-04-30T05:16:50.841Z,8.08
2023-04-30T05:19:37.691Z,8.10
2023-04-30T05:22:17.715Z,8.12
2023-04-30T05:25:11.710Z,8.16
2023-04-30T05:27:58.666Z,8.20
2023-04-30T05:30:32.379Z,8.26
2023-04-30T05:33:18.686Z,8.34
2023-04-30T05:35:58.718Z,8.42
2023-04-30T05:38:45.733Z,8.46
2023-04-30T05:41:19.773Z,8.47
2023-04-30T05:44:06.723Z,8.48
2023-04-30T05:46:40.795Z,8.50
2023-04-30T05:49:27.732Z,8.49
2023-04-30T05:52:08.711Z,8.53
2023-04-30T05:55:02.721Z,8.59
2023-04-30T05:57:49.727Z,8.63
2023-04-30T06:00:22.839Z,8.67
2023-04-30T06:03:10.754Z,8.70
2023-04-30T06:05:44.530Z,8.74
2023-04-30T06:08:31.718Z,8.80
2023-04-30T06:11:05.411Z,8.85
2023-04-30T06:13:54.709Z,8.91
2023-04-30T06:16:27.998Z,8.97
2023-04-30T06:19:14.717Z,9.03
2023-04-30T06:21:47.859Z,9.06
2023-04-30T06:24:34.751Z,9.09
2023-04-30T06:27:14.735Z,9.16
2023-04-30T06:30:01.732Z,9.26
2023-04-30T06:32:35.042Z,9.35
2023-04-30T06:35:21.730Z,9.48
2023-04-30T06:37:54.828Z,9.56
2023-04-30T06:40:42.742Z,9.60
2023-04-30T06:43:22.753Z,9.67
2023-04-30T06:46:10.796Z,9.70
2023-04-30T06:48:43.889Z,9.71
2023-04-30T06:51:30.723Z,9.66
2023-04-30T06:54:03.854Z,9.69
2023-04-30T06:56:51.751Z,9.67
2023-04-30T06:59:24.847Z,9.66
2023-04-30T07:02:11.778Z,9.68
2023-04-30T07:04:51.749Z,9.69
2023-04-30T07:07:38.750Z,9.66
2023-04-30T07:10:13.547Z,9.58
2023-04-30T07:13:00.767Z,9.57
2023-04-30T07:15:34.136Z,9.57
2023-04-30T07:18:20.733Z,9.55
2023-04-30T07:21:00.749Z,9.56
2023-04-30T07:23:54.736Z,9.55
2023-04-30T07:26:42.770Z,9.56
2023-04-30T07:29:22.738Z,9.57
2023-04-30T07:32:09.745Z,9.59
2023-04-30T07:34:49.742Z,9.59
2023-04-30T07:37:37.188Z,9.61
2023-04-30T07:40:28.966Z,9.57
2023-04-30T07:43:21.747Z,9.59
2023-04-30T07:46:01.799Z,9.59
2023-04-30T07:48:55.751Z,9.58
2023-04-30T07:51:42.749Z,9.53
2023-04-30T07:54:15.851Z,9.50
2023-04-30T07:57:02.777Z,9.47
2023-04-30T07:59:42.777Z,9.43
2023-04-30T08:02:29.820Z,9.36
2023-04-30T08:05:04.080Z,9.30
2023-04-30T08:07:50.767Z,9.30
2023-04-30T08:10:30.765Z,9.24
2023-04-30T08:13:17.781Z,9.21
2023-04-30T08:15:57.763Z,9.14
2023-04-30T08:18:52.878Z,9.13
2023-04-30T08:21:46.804Z,9.12
2023-04-30T08:24:33.817Z,9.13
2023-04-30T08:27:13.805Z,9.13
2023-04-30T08:30:07.776Z,9.12
2023-04-30T08:32:57.653Z,9.11
2023-04-30T08:35:37.776Z,9.11
2023-04-30T08:38:31.776Z,9.15
2023-04-30T08:41:27.791Z,9.16
2023-04-30T08:44:17.785Z,9.15
2023-04-30T08:46:50.946Z,9.15
2023-04-30T08:49:39.796Z,9.12
2023-04-30T08:52:13.899Z,9.10
2023-04-30T08:55:02.822Z,8.99
2023-04-30T08:57:38.956Z,8.88
2023-04-30T09:00:25.798Z,8.80
2023-04-30T09:02:58.981Z,8.78
2023-04-30T09:05:46.781Z,8.71
2023-04-30T09:08:24.919Z,8.62
2023-04-30T09:11:33.853Z,8.62
2023-04-30T09:14:08.929Z,8.59
2023-04-30T09:16:57.814Z,8.64
2023-04-30T09:19:36.100Z,8.70
2023-04-30T09:22:30.810Z,8.78
2023-04-30T09:25:03.979Z,8.77
2023-04-30T09:27:51.810Z,8.76
2023-04-30T09:30:45.970Z,8.70
2023-04-30T09:33:36.819Z,8.60
2023-04-30T09:36:16.326Z,8.58
2023-04-30T09:39:02.789Z,8.65
2023-04-30T09:41:35.943Z,8.67
2023-04-30T09:44:44.838Z,8.65
2023-04-30T09:47:26.861Z,8.58
2023-04-30T09:50:20.811Z,8.62
2023-04-30T09:53:21.814Z,8.55
2023-04-30T09:56:10.810Z,8.52
2023-04-30T09:58:45.428Z,8.46
2023-04-30T10:01:34.812Z,8.31
2023-04-30T10:04:08.125Z,8.34
2023-04-30T10:06:54.826Z,8.40
2023-04-30T10:09:28.956Z,8.40
2023-04-30T10:12:21.822Z,8.41
2023-04-30T10:15:01.989Z,8.56
2023-04-30T10:17:53.877Z,8.60
2023-04-30T10:20:29.923Z,8.64
2023-04-30T10:23:17.861Z,8.59
2023-04-30T10:25:50.946Z,8.61
2023-04-30T10:28:39.861Z,8.69
2023-04-30T10:31:14.330Z,8.63
2023-04-30T10:34:05.841Z,8.62
2023-04-30T10:36:57.040Z,8.63
2023-04-30T10:39:44.857Z,8.66
2023-04-30T10:42:24.850Z,8.70
2023-04-30T10:45:18.836Z,8.76
2023-04-30T10:48:05.906Z,8.76
2023-04-30T10:50:40.347Z,8.83
2023-04-30T10:53:35.864Z,8.77
2023-04-30T10:56:42.876Z,8.73
2023-04-30T10:59:36.878Z,8.74
2023-04-30T11:02:26.859Z,8.81
2023-04-30T11:05:26.840Z,8.84
2023-04-30T11:08:24.853Z,8.86
2023-04-30T11:11:14.837Z,8.86
2023-04-30T11:13:51.985Z,8.82
2023-04-30T11:16:42.108Z,8.78
2023-04-30T11:19:20.963Z,8.80
2023-04-30T11:22:10.962Z,8.76
2023-04-30T11:25:16.972Z,8.78
2023-04-30T11:28:03.881Z,8.82
2023-04-30T11:30:40.583Z,8.81
2023-04-30T11:33:27.914Z,8.75
2023-04-30T11:36:02.982Z,8.78
2023-04-30T11:38:49.856Z,8.79
2023-04-30T11:41:23.447Z,8.79
2023-04-30T11:44:09.865Z,8.82
2023-04-30T11:46:43.053Z,8.86
2023-04-30T11:49:30.863Z,8.87
2023-04-30T11:52:04.034Z,8.89
2023-04-30T11:54:50.881Z,8.89
2023-04-30T11:57:23.987Z,8.89
2023-04-30T12:00:20.035Z,8.86
2023-04-30T12:02:55.059Z,8.86
2023-04-30T12:05:41.887Z,8.87
2023-04-30T12:08:21.877Z,8.90
2023-04-30T12:11:08.869Z,9.01
2023-04-30T12:13:42.070Z,9.15
2023-04-30T12:16:30.878Z,9.34
2023-04-30T12:19:04.044Z,9.56
2023-04-30T12:21:55.896Z,9.78
2023-04-30T12:24:33.992Z,10.02
2023-04-30T12:27:21.888Z,10.28
2023-04-30T12:29:56.516Z,10.44
2023-04-30T12:32:55.954Z,10.59
2023-04-30T12:35:40.899Z,10.76
2023-04-30T12:38:34.903Z,10.92
2023-04-30T12:41:28.883Z,11.08
2023-04-30T12:44:29.884Z,11.13
2023-04-30T12:47:16.907Z,11.19
2023-04-30T12:49:52.475Z,11.31
2023-04-30T12:52:39.229Z,11.42
2023-04-30T12:55:27.109Z,11.59
2023-04-30T12:58:15.924Z,11.74
2023-04-30T13:00:56.750Z,11.77
2023-04-30T13:03:44.030Z,11.81
2023-04-30T13:06:17.273Z,11.86
2023-04-30T13:09:03.886Z,11.82
2023-04-30T13:11:37.198Z,11.81
2023-04-30T13:14:23.923Z,11.78
2023-04-30T13:17:03.906Z,11.75
2023-04-30T13:19:57.910Z,11.71
2023-04-30T13:22:46.337Z,11.75
2023-04-30T13:25:20.027Z,11.75
2023-04-30T13:28:06.956Z,11.79
2023-04-30T13:30:47.910Z,11.82
2023-04-30T13:33:41.956Z,11.79
2023-04-30T13:36:36.907Z,11.77
2023-04-30T13:39:23.913Z,11.79
2023-04-30T13:41:58.878Z,11.83
2023-04-30T13:44:45.930Z,11.82
2023-04-30T13:47:25.971Z,11.84
2023-04-30T13:50:14.964Z,11.79
2023-04-30T13:52:48.076Z,11.80
2023-04-30T13:55:40.910Z,11.80
2023-04-30T13:58:16.790Z,11.89
2023-04-30T14:01:04.030Z,11.89
2023-04-30T14:03:37.130Z,11.97
2023-04-30T14:06:24.008Z,11.96
2023-04-30T14:09:03.924Z,11.85
2023-04-30T14:11:57.983Z,11.73
2023-04-30T14:14:46.290Z,11.74
2023-04-30T14:17:27.047Z,11.76
2023-04-30T14:20:14.973Z,11.78
2023-04-30T14:22:48.082Z,11.79
2023-04-30T14:25:34.992Z,11.82
2023-04-30T14:28:08.082Z,11.90
2023-04-30T14:30:54.968Z,11.96
2023-04-30T14:33:34.964Z,12.10
2023-04-30T14:36:21.988Z,12.17
2023-04-30T14:38:55.124Z,12.14
2023-04-30T14:41:42.961Z,12.11
2023-04-30T14:44:16.112Z,12.11
2023-04-30T14:47:02.966Z,12.05
2023-04-30T14:49:42.967Z,12.05
2023-04-30T14:52:29.997Z,12.06
2023-04-30T14:55:10.964Z,12.01
2023-04-30T14:57:58.005Z,11.95
2023-04-30T15:00:37.996Z,11.88
2023-04-30T15:03:25.201Z,11.87
2023-04-30T15:05:58.227Z,11.88
2023-04-30T15:08:46.173Z,11.89
2023-04-30T15:11:26.096Z,11.91
2023-04-30T15:14:20.065Z,11.94
2023-04-30T15:17:07.001Z,11.94
2023-04-30T15:19:40.096Z,11.94
2023-04-30T15:22:28.134Z,11.93
2023-04-30T15:25:08.040Z,11.88
2023-04-30T15:28:02.012Z,11.87
2023-04-30T15:30:56.135Z,11.84
2023-04-30T15:33:48.234Z,11.77
2023-04-30T15:36:23.448Z,11.75
2023-04-30T15:39:11.065Z,11.70
2023-04-30T15:41:44.982Z,11.64
2023-04-30T15:44:32.009Z,11.59
2023-04-30T15:47:05.280Z,11.60
2023-04-30T15:49:52.114Z,11.59
2023-04-30T15:52:25.098Z,11.55
2023-04-30T15:55:13.020Z,11.54
2023-04-30T15:57:52.990Z,11.54
2023-04-30T16:00:42.966Z,11.48
2023-04-30T16:03:23.059Z,11.44
2023-04-30T16:06:17.020Z,11.42
2023-04-30T16:09:06.729Z,11.38
2023-04-30T16:11:42.297Z,11.29
2023-04-30T16:14:29.068Z,11.23
2023-04-30T16:17:08.994Z,11.23
2023-04-30T16:20:02.997Z,11.20
2023-04-30T16:22:59.007Z,11.16
2023-04-30T16:25:46.057Z,11.10
2023-04-30T16:28:19.157Z,11.07
2023-04-30T16:31:06.050Z,10.96
2023-04-30T16:33:39.202Z,10.89
2023-04-30T16:36:26.062Z,10.83
2023-04-30T16:39:06.108Z,10.81
2023-04-30T16:42:00.040Z,10.75
2023-04-30T16:44:47.002Z,10.66
2023-04-30T16:47:20.204Z,10.64
2023-04-30T16:50:06.992Z,10.65
2023-04-30T16:52:40.129Z,10.62
2023-04-30T16:55:27.067Z,10.55
2023-04-30T16:58:00.219Z,10.52
2023-04-30T17:00:48.941Z,10.45
2023-04-30T17:03:29.134Z,10.41
2023-04-30T17:06:16.147Z,10.32
2023-04-30T17:08:56.062Z,10.22
2023-04-30T17:11:50.057Z,10.13
2023-04-30T17:14:37.066Z,10.04
2023-04-30T17:17:10.151Z,9.97
2023-04-30T17:19:57.192Z,9.90
2023-04-30T17:22:38.051Z,9.81
2023-04-30T17:25:32.045Z,9.72
2023-04-30T17:28:19.078Z,9.61
2023-04-30T17:30:52.514Z,9.53
2023-04-30T17:33:41.249Z,9.41
2023-04-30T17:36:25.049Z,9.30
2023-04-30T17:39:19.062Z,9.19
2023-04-30T17:42:06.065Z,9.08
2023-04-30T17:44:39.872Z,9.00
2023-04-30T17:47:29.124Z,8.92
2023-04-30T17:50:11.078Z,8.85
2023-04-30T17:52:51.069Z,8.75
2023-04-30T17:55:38.065Z,8.66
2023-04-30T17:58:33.087Z,8.57
2023-04-30T18:01:20.092Z,8.48
2023-04-30T18:03:53.638Z,8.43
2023-04-30T18:06:40.160Z,8.34
2023-04-30T18:09:20.067Z,8.24
2023-04-30T18:12:14.097Z,8.18
2023-04-30T18:15:01.073Z,8.05
2023-04-30T18:17:41.087Z,7.98
2023-04-30T18:20:29.086Z,7.91
2023-04-30T18:23:09.876Z,7.88
2023-04-30T18:25:58.087Z,7.85
2023-04-30T18:28:39.086Z,7.76
2023-04-30T18:31:33.095Z,7.69
2023-04-30T18:34:21.078Z,7.61
2023-04-30T18:37:01.121Z,7.56
2023-04-30T18:39:55.251Z,7.48
2023-04-30T18:42:44.086Z,7.41
2023-04-30T18:45:18.130Z,7.38
2023-04-30T18:48:05.117Z,7.36
2023-04-30T18:50:40.683Z,7.33
2023-04-30T18:53:29.112Z,7.31
2023-04-30T18:56:05.256Z,7.28
2023-04-30T18:58:55.127Z,7.27
2023-04-30T19:01:28.759Z,7.24
2023-04-30T19:04:20.124Z,7.23
2023-04-30T19:07:03.078Z,7.17
2023-04-30T19:09:52.129Z,7.13
2023-04-30T19:12:26.320Z,7.10
2023-04-30T19:15:16.086Z,7.06
2023-04-30T19:17:56.117Z,7.02
2023-04-30T19:20:45.184Z,6.98
2023-04-30T19:23:18.915Z,6.93
2023-04-30T19:26:08.824Z,6.88
2023-04-30T19:28:43.253Z,6.85
2023-04-30T19:31:30.404Z,6.83
2023-04-30T19:34:07.209Z,6.76
2023-04-30T19:36:54.110Z,6.73
2023-04-30T19:39:35.114Z,6.66
2023-04-30T19:42:29.123Z,6.56
2023-04-30T19:45:17.137Z,6.46
2023-04-30T19:47:57.137Z,6.38
2023-04-30T19:50:48.098Z,6.29
2023-04-30T19:53:32.120Z,6.25
2023-04-30T19:56:27.264Z,6.19
2023-04-30T19:59:15.119Z,6.10
2023-04-30T20:01:55.142Z,6.05
2023-04-30T20:04:43.135Z,6.00
2023-04-30T20:07:23.127Z,5.94
2023-04-30T20:10:10.140Z,5.89
2023-04-30T20:12:50.147Z,5.86
2023-04-30T20:15:44.160Z,5.85
2023-04-30T20:18:31.133Z,5.79
2023-04-30T20:21:04.708Z,5.74
2023-04-30T20:23:51.126Z,5.70
2023-04-30T20:26:25.882Z,5.66
2023-04-30T20:29:13.134Z,5.60
2023-04-30T20:31:47.459Z,5.56
2023-04-30T20:34:34.111Z,5.51
2023-04-30T20:37:07.280Z,5.45
2023-04-30T20:39:54.287Z,5.42
2023-04-30T20:42:28.276Z,5.39
2023-04-30T20:45:16.137Z,5.33
2023-04-30T20:47:57.466Z,5.28
2023-04-30T20:50:44.116Z,5.26
2023-04-30T20:53:17.379Z,5.22
2023-04-30T20:56:07.131Z,5.14
2023-04-30T20:58:47.143Z,5.11
2023-04-30T21:01:34.181Z,5.03
2023-04-30T21:04:07.860Z,4.96
2023-04-30T21:06:54.154Z,4.88
2023-04-30T21:09:34.150Z,4.85
2023-04-30T21:12:28.129Z,4.78
2023-04-30T21:15:16.121Z,4.72
2023-04-30T21:17:49.312Z,4.65
2023-04-30T21:20:38.137Z,4.62
2023-04-30T21:23:11.314Z,4.58
2023-04-30T21:26:01.200Z,4.56
2023-04-30T21:28:35.449Z,4.50
2023-04-30T21:31:22.228Z,4.46
2023-04-30T21:33:55.253Z,4.39
2023-04-30T21:36:42.140Z,4.36
2023-04-30T21:39:15.475Z,4.35
2023-04-30T21:42:02.122Z,4.32
2023-04-30T21:44:37.431Z,4.28
2023-04-30T21:47:24.162Z,4.28
2023-04-30T21:50:05.183Z,4.25
2023-04-30T21:52:52.156Z,4.23
2023-04-30T21:55:26.681Z,4.18
2023-04-30T21:58:13.191Z,4.14
2023-04-30T22:00:46.563Z,4.09
2023-04-30T22:03:35.636Z,4.04
2023-04-30T22:06:09.323Z,3.96
2023-04-30T22:08:56.134Z,3.90
2023-04-30T22:11:29.239Z,3.86
2023-04-30T22:14:16.135Z,3.78
2023-04-30T22:16:56.321Z,3.75
2023-04-30T22:19:43.191Z,3.66
2023-04-30T22:22:16.529Z,3.59
2023-04-30T22:25:03.158Z,3.51
2023-04-30T22:27:36.342Z,3.47
2023-04-30T22:30:24.141Z,3.42
2023-04-30T22:33:04.222Z,3.37
2023-04-30T22:35:51.175Z,3.33
2023-04-30T22:38:31.180Z,3.27
2023-04-30T22:41:25.169Z,3.24
2023-04-30T22:44:12.163Z,3.22
2023-04-30T22:46:45.326Z,3.19
2023-04-30T22:49:33.197Z,3.16
2023-04-30T22:52:14.176Z,3.14
2023-04-30T22:55:08.143Z,3.10
2023-04-30T22:57:55.173Z,3.03
2023-04-30T23:00:35.241Z,2.98
2023-04-30T23:03:29.174Z,2.95
2023-04-30T23:06:16.188Z,2.88
2023-04-30T23:08:56.171Z,2.86
2023-04-30T23:11:43.163Z,2.87
2023-04-30T23:14:24.163Z,2.89
2023-04-30T23:17:18.267Z,2.84
2023-04-30T23:20:05.208Z,2.79
2023-04-30T23:22:38.306Z,2.77
2023-04-30T23:25:25.172Z,2.74
2023-04-30T23:27:59.787Z,2.71
2023-04-30T23:30:46.176Z,2.69
2023-04-30T23:33:19.631Z,2.65
2023-04-30T23:36:06.221Z,2.62
2023-04-30T23:38:39.276Z,2.57
2023-04-30T23:41:26.194Z,2.56
2023-04-30T23:44:06.199Z,2.51
2023-04-30T23:46:54.245Z,2.48
2023-04-30T23:49:27.315Z,2.45
2023-04-30T23:52:14.173Z,2.45
2023-04-30T23:54:47.348Z,2.42
2023-04-30T23:57:34.178Z,2.38
